Observations for ABERDEEN DYCE, United Kingdom (EGPD)

EGPD 112250Z AUTO 17015KT 9999 OVC009 08/06 Q1019 TEMPO BKN012  
EGPD 112220Z 17015KT 9000 SCT008 BKN010 BKN029 08/06 Q1019 NOSIG
EGPD 112150Z 17015KT 9000 -DZ FEW004 SCT006 BKN007 07/06 Q1019 TEMPO BKN010 
EGPD 112120Z 16015KT 4900 BR BKN004 07/07 Q1019 TEMPO 5000 BKN006   
EGPD 112050Z AUTO 17016KT 5000 -RADZ OVC003 07/07 Q1020 TEMPO BKN006
EGPD 112020Z AUTO 17015KT 3400 -RADZ OVC003 07/07 Q1020 TEMPO 5000 BKN006   
EGPD 111950Z AUTO 17015KT 4100 -RADZ OVC003 07/07 Q1020 TEMPO 5000 BKN006   
EGPD 111920Z 16014KT 3800 -DZ OVC004 07/07 Q1020 TEMPO 5000 BKN007  
EGPD 111850Z 16014KT 3700 -DZ BKN004 07/07 Q1020 TEMPO 5000 BKN007  
EGPD 111820Z 16013KT 5000 -DZ SCT005 BKN011 07/06 Q1020 TEMPO BKN009
EGPD 111750Z 17012KT 8000 SCT007 BKN011 07/06 Q1020 TEMPO BKN009
EGPD 111720Z 16010KT 9999 SCT010 BKN018 07/06 Q1020 TEMPO BKN014
EGPD 111650Z 17010KT 9999 SCT012 BKN021 07/05 Q1020 TEMPO BKN014
EGPD 111620Z 16009KT 9999 SCT009 BKN017 07/05 Q1020 TEMPO BKN014
EGPD 111550Z 17010KT 9999 FEW007 BKN028 06/05 Q1020 TEMPO BKN014
EGPD 111520Z 17011KT 9999 BKN007 06/05 Q1020 NOSIG  
EGPD 111450Z 17011KT 9999 BKN008 07/05 Q1020 TEMPO BKN010   
EGPD 111420Z 18012KT 9999 BKN008 07/05 Q1020 TEMPO BKN010   
EGPD 111350Z AUTO 16012KT 9999 BKN008 07/05 Q1020 TEMPO BKN010  
EGPD 111320Z 18011KT 9999 SCT009 SCT017 07/05 Q1021 TEMPO BKN014
EGPD 111250Z 18011KT 9999 VCSH SCT009 BKN016 07/05 Q1021 TEMPO BKN014   
EGPD 111220Z 18012KT 9999 SCT011 BKN016 BKN031 07/05 Q1021 TEMPO BKN014 
EGPD 111150Z 18011KT 9999 BKN015 BKN033 07/05 Q1021 TEMPO BKN014
EGPD 111120Z 17010KT 9999 BKN015 BKN033 07/05 Q1021 TEMPO BKN014
EGPD 111050Z 17009KT 9999 BKN015 BKN032 07/05 Q1022 TEMPO BKN014
EGPD 111020Z AUTO 17010KT 9999 BKN014 OVC032 06/04 Q1022 NOSIG  
EGPD 110950Z 16011KT 9999 BKN013 BKN033 06/04 Q1022 NOSIG   
EGPD 110920Z 16010KT 9999 SCT013 BKN032 06/04 Q1022 NOSIG   
EGPD 110850Z 17011KT 9999 FEW016 BKN032 05/03 Q1022 NOSIG   
EGPD 110820Z 17008KT 9999 SCT032 05/03 Q1022 NOSIG  
EGPD 110750Z 17007KT 9999 FEW016 BKN030 04/03 Q1022 NOSIG   
EGPD 110720Z 18006KT 9999 SCT016 BKN028 04/02 Q1022 NOSIG   
EGPD 110650Z 18007KT 9999 FEW018 SCT028 04/02 Q1022 NOSIG   
EGPD 110620Z 17005KT 9999 BKN025 03/01 Q1023 NOSIG  
EGPD 110550Z 16005KT 9999 BKN026 02/01 Q1023 NOSIG  
EGPD 110520Z 16005KT 9999 SCT027 02/00 Q1023 NOSIG  
EGPD 110450Z AUTO 17009KT 9999 NCD 02/00 Q1023 NOSIG
EGPD 110420Z AUTO 17008KT 9999 NCD 02/00 Q1023 NOSIG
EGPD 110350Z AUTO 17006KT 9999 NCD 02/00 Q1023 NOSIG
EGPD 110320Z AUTO 15004KT 9999 NCD 01/M01 Q1023 NOSIG   
EGPD 110250Z AUTO VRB02KT 9999 NCD M01/M02 Q1024 NOSIG  
EGPD 110220Z AUTO VRB01KT 9999 NCD M02/M03 Q1024 NOSIG  
EGPD 110150Z AUTO VRB01KT 9999 NCD M01/M03 Q1024 NOSIG  
EGPD 110120Z AUTO 30001KT 9999 NCD M02/M03 Q1024 NOSIG  
EGPD 110050Z AUTO 07001KT 9999 NCD M03/M04 Q1024 NOSIG  
EGPD 110020Z AUTO 07001KT 9999 NCD M02/M03 Q1025 NOSIG  
EGPD 102350Z AUTO VRB01KT 9999 NCD M03/M03 Q1025 NOSIG  
EGPD 102320Z AUTO 05001KT 9999 NCD M04/M05 Q1025 NOSIG  
EGPD 102250Z AUTO VRB02KT 9999 NCD M03/M04 Q1025 NOSIG  
EGPD 102220Z AUTO 21002KT 9999 NCD M03/M04 Q1025 NOSIG